<?xml version="1.0" encoding="UTF-8"?>
<gpx xmlns="http://www.topografix.com/GPX/1/1" xmlns:xsi="http://www.w3.org/2001/XMLSchema-instance" version="1.1" xsi:schemaLocation="http://www.topografix.com/GPX/1/1 http://www.topografix.com/GPX/1/1/gpx.xsd">
  <metadata>
    <name>Diamond In The Rough Triathlon 2022 - Sprint Aquabike</name>
  </metadata>
  <trk>
    <name>Diamond In The Rough Triathlon 2022 - Sprint Aquabike</name>
    <trkseg>
      <trkpt lat="39.54838" lon="-76.050832">
        <ele>3.795122</ele>
        <time>2024-07-13T08:16:00.000Z</time>
      </trkpt>
      <trkpt lat="39.548405" lon="-76.050854">
        <ele>3.795135</ele>
        <time>2024-07-13T08:16:00.000Z</time>
      </trkpt>
      <trkpt lat="39.548404" lon="-76.050848">
        <ele>3.79512</ele>
        <time>2024-07-13T08:16:00.000Z</time>
      </trkpt>
      <trkpt lat="39.548812" lon="-76.050987">
        <ele>3.795121</ele>
        <time>2024-07-13T08:16:05.000Z</time>
      </trkpt>
      <trkpt lat="39.548913" lon="-76.051107">
        <ele>3.79512</ele>
        <time>2024-07-13T08:16:07.000Z</time>
      </trkpt>
      <trkpt lat="39.549087" lon="-76.051729">
        <ele>3.806224</ele>
        <time>2024-07-13T08:16:13.000Z</time>
      </trkpt>
      <trkpt lat="39.54935" lon="-76.052087">
        <ele>3.827202</ele>
        <time>2024-07-13T08:16:17.000Z</time>
      </trkpt>
      <trkpt lat="39.55013" lon="-76.05251">
        <ele>3.87518</ele>
        <time>2024-07-13T08:16:26.000Z</time>
      </trkpt>
      <trkpt lat="39.550199" lon="-76.052689">
        <ele>3.883886</ele>
        <time>2024-07-13T08:16:28.000Z</time>
      </trkpt>
      <trkpt lat="39.550221" lon="-76.053264">
        <ele>3.866457</ele>
        <time>2024-07-13T08:16:33.000Z</time>
      </trkpt>
      <trkpt lat="39.550358" lon="-76.053704">
        <ele>3.819503</ele>
        <time>2024-07-13T08:16:37.000Z</time>
      </trkpt>
      <trkpt lat="39.550615" lon="-76.053846">
        <ele>3.782828</ele>
        <time>2024-07-13T08:16:40.000Z</time>
      </trkpt>
      <trkpt lat="39.550917" lon="-76.053799">
        <ele>3.744408</ele>
        <time>2024-07-13T08:16:43.000Z</time>
      </trkpt>
      <trkpt lat="39.551044" lon="-76.053625">
        <ele>3.720062</ele>
        <time>2024-07-13T08:16:45.000Z</time>
      </trkpt>
      <trkpt lat="39.551124" lon="-76.053414">
        <ele>3.695727</ele>
        <time>2024-07-13T08:16:47.000Z</time>
      </trkpt>
      <trkpt lat="39.551208" lon="-76.053149">
        <ele>3.66851</ele>
        <time>2024-07-13T08:16:49.000Z</time>
      </trkpt>
      <trkpt lat="39.551284" lon="-76.053117">
        <ele>3.685925</ele>
        <time>2024-07-13T08:16:50.000Z</time>
      </trkpt>
      <trkpt lat="39.551799" lon="-76.053092">
        <ele>3.946308</ele>
        <time>2024-07-13T08:16:56.000Z</time>
      </trkpt>
      <trkpt lat="39.551925" lon="-76.053174">
        <ele>4.013091</ele>
        <time>2024-07-13T08:16:58.000Z</time>
      </trkpt>
      <trkpt lat="39.552105" lon="-76.053541">
        <ele>4.184106</ele>
        <time>2024-07-13T08:17:02.000Z</time>
      </trkpt>
      <trkpt lat="39.552466" lon="-76.053726">
        <ele>4.376709</ele>
        <time>2024-07-13T08:17:06.000Z</time>
      </trkpt>
      <trkpt lat="39.552847" lon="-76.054168">
        <ele>4.68588</ele>
        <time>2024-07-13T08:17:12.000Z</time>
      </trkpt>
      <trkpt lat="39.553109" lon="-76.054546">
        <ele>5.030298</ele>
        <time>2024-07-13T08:17:16.000Z</time>
      </trkpt>
      <trkpt lat="39.553086" lon="-76.05497">
        <ele>5.328531</ele>
        <time>2024-07-13T08:17:20.000Z</time>
      </trkpt>
      <trkpt lat="39.553367" lon="-76.055646">
        <ele>5.851659</ele>
        <time>2024-07-13T08:17:27.000Z</time>
      </trkpt>
      <trkpt lat="39.553517" lon="-76.055843">
        <ele>6.051758</ele>
        <time>2024-07-13T08:17:29.000Z</time>
      </trkpt>
      <trkpt lat="39.554296" lon="-76.056461">
        <ele>6.780369</ele>
        <time>2024-07-13T08:17:39.000Z</time>
      </trkpt>
      <trkpt lat="39.554523" lon="-76.056895">
        <ele>7.094961</ele>
        <time>2024-07-13T08:17:43.000Z</time>
      </trkpt>
      <trkpt lat="39.554616" lon="-76.057443">
        <ele>7.43818</ele>
        <time>2024-07-13T08:17:48.000Z</time>
      </trkpt>
      <trkpt lat="39.554847" lon="-76.058151">
        <ele>8.08588</ele>
        <time>2024-07-13T08:17:55.000Z</time>
      </trkpt>
      <trkpt lat="39.554979" lon="-76.058574">
        <ele>8.535811</ele>
        <time>2024-07-13T08:17:59.000Z</time>
      </trkpt>
      <trkpt lat="39.555022" lon="-76.058876">
        <ele>8.831807</ele>
        <time>2024-07-13T08:18:02.000Z</time>
      </trkpt>
      <trkpt lat="39.554936" lon="-76.059529">
        <ele>9.457829</ele>
        <time>2024-07-13T08:18:08.000Z</time>
      </trkpt>
      <trkpt lat="39.554667" lon="-76.060758">
        <ele>9.88518</ele>
        <time>2024-07-13T08:18:19.000Z</time>
      </trkpt>
      <trkpt lat="39.555688" lon="-76.063473">
        <ele>8.889994</ele>
        <time>2024-07-13T08:18:45.000Z</time>
      </trkpt>
      <trkpt lat="39.555953" lon="-76.06406">
        <ele>8.439946</ele>
        <time>2024-07-13T08:18:51.000Z</time>
      </trkpt>
      <trkpt lat="39.556167" lon="-76.063948">
        <ele>8.357296</ele>
        <time>2024-07-13T08:18:54.000Z</time>
      </trkpt>
      <trkpt lat="39.556694" lon="-76.063949">
        <ele>8.264133</ele>
        <time>2024-07-13T08:19:00.000Z</time>
      </trkpt>
      <trkpt lat="39.556994" lon="-76.063896">
        <ele>8.211089</ele>
        <time>2024-07-13T08:19:03.000Z</time>
      </trkpt>
      <trkpt lat="39.557121" lon="-76.063842">
        <ele>8.187043</ele>
        <time>2024-07-13T08:19:04.000Z</time>
      </trkpt>
      <trkpt lat="39.55742" lon="-76.063634">
        <ele>8.126427</ele>
        <time>2024-07-13T08:19:08.000Z</time>
      </trkpt>
      <trkpt lat="39.557938" lon="-76.063008">
        <ele>8.902814</ele>
        <time>2024-07-13T08:19:16.000Z</time>
      </trkpt>
      <trkpt lat="39.55826" lon="-76.062576">
        <ele>9.946597</ele>
        <time>2024-07-13T08:19:21.000Z</time>
      </trkpt>
      <trkpt lat="39.558744" lon="-76.062981">
        <ele>11.292064</ele>
        <time>2024-07-13T08:19:27.000Z</time>
      </trkpt>
      <trkpt lat="39.560243" lon="-76.063707">
        <ele>14.391958</ele>
        <time>2024-07-13T08:19:45.000Z</time>
      </trkpt>
      <trkpt lat="39.561038" lon="-76.064096">
        <ele>15.515481</ele>
        <time>2024-07-13T08:19:54.000Z</time>
      </trkpt>
      <trkpt lat="39.562204" lon="-76.064658">
        <ele>15.662048</ele>
        <time>2024-07-13T08:20:08.000Z</time>
      </trkpt>
      <trkpt lat="39.562372" lon="-76.064748">
        <ele>15.683967</ele>
        <time>2024-07-13T08:20:10.000Z</time>
      </trkpt>
      <trkpt lat="39.563004" lon="-76.065047">
        <ele>15.971263</ele>
        <time>2024-07-13T08:20:17.000Z</time>
      </trkpt>
      <trkpt lat="39.56408" lon="-76.062783">
        <ele>17.15511</ele>
        <time>2024-07-13T08:20:40.000Z</time>
      </trkpt>
      <trkpt lat="39.564367" lon="-76.06226">
        <ele>17.503575</ele>
        <time>2024-07-13T08:20:46.000Z</time>
      </trkpt>
      <trkpt lat="39.5645" lon="-76.062022">
        <ele>17.662542</ele>
        <time>2024-07-13T08:20:49.000Z</time>
      </trkpt>
      <trkpt lat="39.564812" lon="-76.0617">
        <ele>17.945607</ele>
        <time>2024-07-13T08:20:53.000Z</time>
      </trkpt>
      <trkpt lat="39.565184" lon="-76.061429">
        <ele>18.248493</ele>
        <time>2024-07-13T08:20:58.000Z</time>
      </trkpt>
      <trkpt lat="39.565056" lon="-76.061112">
        <ele>18.449608</ele>
        <time>2024-07-13T08:21:01.000Z</time>
      </trkpt>
      <trkpt lat="39.565026" lon="-76.060827">
        <ele>18.601862</ele>
        <time>2024-07-13T08:21:03.000Z</time>
      </trkpt>
      <trkpt lat="39.565062" lon="-76.060658">
        <ele>18.701959</ele>
        <time>2024-07-13T08:21:05.000Z</time>
      </trkpt>
      <trkpt lat="39.566001" lon="-76.058596">
        <ele>20.845692</ele>
        <time>2024-07-13T08:21:26.000Z</time>
      </trkpt>
      <trkpt lat="39.568947" lon="-76.052375">
        <ele>33.367296</ele>
        <time>2024-07-13T08:22:29.000Z</time>
      </trkpt>
      <trkpt lat="39.569652" lon="-76.050918">
        <ele>34.946346</ele>
        <time>2024-07-13T08:22:44.000Z</time>
      </trkpt>
      <trkpt lat="39.569817" lon="-76.050569">
        <ele>35.233737</ele>
        <time>2024-07-13T08:22:48.000Z</time>
      </trkpt>
      <trkpt lat="39.57004" lon="-76.050133">
        <ele>35.580138</ele>
        <time>2024-07-13T08:22:52.000Z</time>
      </trkpt>
      <trkpt lat="39.572498" lon="-76.044945">
        <ele>40.812116</ele>
        <time>2024-07-13T08:23:44.000Z</time>
      </trkpt>
      <trkpt lat="39.572673" lon="-76.044586">
        <ele>41.12698</ele>
        <time>2024-07-13T08:23:48.000Z</time>
      </trkpt>
      <trkpt lat="39.57299" lon="-76.043922">
        <ele>41.408379</ele>
        <time>2024-07-13T08:23:55.000Z</time>
      </trkpt>
      <trkpt lat="39.573083" lon="-76.043708">
        <ele>41.127649</ele>
        <time>2024-07-13T08:23:57.000Z</time>
      </trkpt>
      <trkpt lat="39.573114" lon="-76.043665">
        <ele>41.067236</ele>
        <time>2024-07-13T08:23:58.000Z</time>
      </trkpt>
      <trkpt lat="39.573592" lon="-76.042629">
        <ele>39.644437</ele>
        <time>2024-07-13T08:24:08.000Z</time>
      </trkpt>
      <trkpt lat="39.573717" lon="-76.042364">
        <ele>39.276067</ele>
        <time>2024-07-13T08:24:11.000Z</time>
      </trkpt>
      <trkpt lat="39.573878" lon="-76.042038">
        <ele>38.767478</ele>
        <time>2024-07-13T08:24:14.000Z</time>
      </trkpt>
      <trkpt lat="39.574213" lon="-76.041326">
        <ele>35.30145</ele>
        <time>2024-07-13T08:24:21.000Z</time>
      </trkpt>
      <trkpt lat="39.574349" lon="-76.041049">
        <ele>33.914515</ele>
        <time>2024-07-13T08:24:24.000Z</time>
      </trkpt>
      <trkpt lat="39.575067" lon="-76.039612">
        <ele>28.017001</ele>
        <time>2024-07-13T08:24:39.000Z</time>
      </trkpt>
      <trkpt lat="39.575408" lon="-76.038767">
        <ele>25.965185</ele>
        <time>2024-07-13T08:24:47.000Z</time>
      </trkpt>
      <trkpt lat="39.575569" lon="-76.038297">
        <ele>24.868308</ele>
        <time>2024-07-13T08:24:51.000Z</time>
      </trkpt>
      <trkpt lat="39.57567" lon="-76.037993">
        <ele>24.290481</ele>
        <time>2024-07-13T08:24:54.000Z</time>
      </trkpt>
      <trkpt lat="39.575805" lon="-76.037574">
        <ele>24.622073</ele>
        <time>2024-07-13T08:24:58.000Z</time>
      </trkpt>
      <trkpt lat="39.575906" lon="-76.037244">
        <ele>24.889949</ele>
        <time>2024-07-13T08:25:01.000Z</time>
      </trkpt>
      <trkpt lat="39.576178" lon="-76.036456">
        <ele>25.518576</ele>
        <time>2024-07-13T08:25:08.000Z</time>
      </trkpt>
      <trkpt lat="39.576436" lon="-76.035695">
        <ele>25.362791</ele>
        <time>2024-07-13T08:25:15.000Z</time>
      </trkpt>
      <trkpt lat="39.576544" lon="-76.035371">
        <ele>24.387685</ele>
        <time>2024-07-13T08:25:18.000Z</time>
      </trkpt>
      <trkpt lat="39.576726" lon="-76.034719">
        <ele>22.470529</ele>
        <time>2024-07-13T08:25:24.000Z</time>
      </trkpt>
      <trkpt lat="39.577046" lon="-76.033588">
        <ele>19.065868</ele>
        <time>2024-07-13T08:25:34.000Z</time>
      </trkpt>
      <trkpt lat="39.577279" lon="-76.033083">
        <ele>17.157492</ele>
        <time>2024-07-13T08:25:39.000Z</time>
      </trkpt>
      <trkpt lat="39.577663" lon="-76.032436">
        <ele>14.479608</ele>
        <time>2024-07-13T08:25:46.000Z</time>
      </trkpt>
      <trkpt lat="39.578032" lon="-76.031791">
        <ele>11.838252</ele>
        <time>2024-07-13T08:25:53.000Z</time>
      </trkpt>
      <trkpt lat="39.57816" lon="-76.031593">
        <ele>12.04713</ele>
        <time>2024-07-13T08:25:55.000Z</time>
      </trkpt>
      <trkpt lat="39.578266" lon="-76.03138">
        <ele>12.253685</ele>
        <time>2024-07-13T08:25:57.000Z</time>
      </trkpt>
      <trkpt lat="39.578333" lon="-76.031272">
        <ele>12.358109</ele>
        <time>2024-07-13T08:25:58.000Z</time>
      </trkpt>
      <trkpt lat="39.579106" lon="-76.029776">
        <ele>13.882543</ele>
        <time>2024-07-13T08:26:13.000Z</time>
      </trkpt>
      <trkpt lat="39.580052" lon="-76.02734">
        <ele>16.611825</ele>
        <time>2024-07-13T08:26:36.000Z</time>
      </trkpt>
      <trkpt lat="39.579094" lon="-76.02978">
        <ele>13.943363</ele>
        <time>2024-07-13T08:26:59.000Z</time>
      </trkpt>
      <trkpt lat="39.578324" lon="-76.031275">
        <ele>12.34438</ele>
        <time>2024-07-13T08:27:14.000Z</time>
      </trkpt>
      <trkpt lat="39.578273" lon="-76.031389">
        <ele>12.534964</ele>
        <time>2024-07-13T08:27:15.000Z</time>
      </trkpt>
      <trkpt lat="39.578156" lon="-76.03159">
        <ele>12.911876</ele>
        <time>2024-07-13T08:27:17.000Z</time>
      </trkpt>
      <trkpt lat="39.578037" lon="-76.031808">
        <ele>13.293038</ele>
        <time>2024-07-13T08:27:19.000Z</time>
      </trkpt>
      <trkpt lat="39.577662" lon="-76.032439">
        <ele>14.473646</ele>
        <time>2024-07-13T08:27:26.000Z</time>
      </trkpt>
      <trkpt lat="39.577294" lon="-76.033089">
        <ele>16.436916</ele>
        <time>2024-07-13T08:27:33.000Z</time>
      </trkpt>
      <trkpt lat="39.577061" lon="-76.033587">
        <ele>18.712931</ele>
        <time>2024-07-13T08:27:38.000Z</time>
      </trkpt>
      <trkpt lat="39.576725" lon="-76.034705">
        <ele>23.474083</ele>
        <time>2024-07-13T08:27:48.000Z</time>
      </trkpt>
      <trkpt lat="39.576538" lon="-76.035372">
        <ele>24.549928</ele>
        <time>2024-07-13T08:27:54.000Z</time>
      </trkpt>
      <trkpt lat="39.576433" lon="-76.035691">
        <ele>24.664334</ele>
        <time>2024-07-13T08:27:57.000Z</time>
      </trkpt>
      <trkpt lat="39.576164" lon="-76.036452">
        <ele>24.933312</ele>
        <time>2024-07-13T08:28:04.000Z</time>
      </trkpt>
      <trkpt lat="39.575907" lon="-76.037242">
        <ele>25.190905</ele>
        <time>2024-07-13T08:28:11.000Z</time>
      </trkpt>
      <trkpt lat="39.575799" lon="-76.037576">
        <ele>25.268615</ele>
        <time>2024-07-13T08:28:14.000Z</time>
      </trkpt>
      <trkpt lat="39.575672" lon="-76.037997">
        <ele>25.364811</ele>
        <time>2024-07-13T08:28:18.000Z</time>
      </trkpt>
      <trkpt lat="39.575565" lon="-76.038304">
        <ele>25.435691</ele>
        <time>2024-07-13T08:28:21.000Z</time>
      </trkpt>
      <trkpt lat="39.575392" lon="-76.038752">
        <ele>25.544271</ele>
        <time>2024-07-13T08:28:25.000Z</time>
      </trkpt>
      <trkpt lat="39.575076" lon="-76.039619">
        <ele>27.46997</ele>
        <time>2024-07-13T08:28:33.000Z</time>
      </trkpt>
      <trkpt lat="39.574344" lon="-76.041033">
        <ele>34.379091</ele>
        <time>2024-07-13T08:28:48.000Z</time>
      </trkpt>
      <trkpt lat="39.57422" lon="-76.041327">
        <ele>35.517311</ele>
        <time>2024-07-13T08:28:51.000Z</time>
      </trkpt>
      <trkpt lat="39.57387" lon="-76.042053">
        <ele>37.788958</ele>
        <time>2024-07-13T08:28:58.000Z</time>
      </trkpt>
      <trkpt lat="39.573721" lon="-76.042354">
        <ele>38.768177</ele>
        <time>2024-07-13T08:29:01.000Z</time>
      </trkpt>
      <trkpt lat="39.573605" lon="-76.042632">
        <ele>39.620062</ele>
        <time>2024-07-13T08:29:04.000Z</time>
      </trkpt>
      <trkpt lat="39.573103" lon="-76.043655">
        <ele>41.218685</ele>
        <time>2024-07-13T08:29:14.000Z</time>
      </trkpt>
      <trkpt lat="39.57308" lon="-76.043709">
        <ele>41.205078</ele>
        <time>2024-07-13T08:29:15.000Z</time>
      </trkpt>
      <trkpt lat="39.572997" lon="-76.043906">
        <ele>41.141771</ele>
        <time>2024-07-13T08:29:17.000Z</time>
      </trkpt>
      <trkpt lat="39.572663" lon="-76.044601">
        <ele>40.932132</ele>
        <time>2024-07-13T08:29:24.000Z</time>
      </trkpt>
      <trkpt lat="39.572505" lon="-76.044942">
        <ele>40.824998</ele>
        <time>2024-07-13T08:29:27.000Z</time>
      </trkpt>
      <trkpt lat="39.570033" lon="-76.050131">
        <ele>35.675033</ele>
        <time>2024-07-13T08:30:19.000Z</time>
      </trkpt>
      <trkpt lat="39.569834" lon="-76.050563">
        <ele>35.327159</ele>
        <time>2024-07-13T08:30:23.000Z</time>
      </trkpt>
      <trkpt lat="39.569659" lon="-76.05093">
        <ele>35.038515</ele>
        <time>2024-07-13T08:30:27.000Z</time>
      </trkpt>
      <trkpt lat="39.568949" lon="-76.052374">
        <ele>33.226777</ele>
        <time>2024-07-13T08:30:42.000Z</time>
      </trkpt>
      <trkpt lat="39.565995" lon="-76.058599">
        <ele>20.781256</ele>
        <time>2024-07-13T08:31:45.000Z</time>
      </trkpt>
      <trkpt lat="39.565067" lon="-76.06066">
        <ele>18.720789</ele>
        <time>2024-07-13T08:32:05.000Z</time>
      </trkpt>
      <trkpt lat="39.565037" lon="-76.060837">
        <ele>18.600786</ele>
        <time>2024-07-13T08:32:07.000Z</time>
      </trkpt>
      <trkpt lat="39.565044" lon="-76.061107">
        <ele>18.418254</ele>
        <time>2024-07-13T08:32:09.000Z</time>
      </trkpt>
      <trkpt lat="39.565177" lon="-76.061433">
        <ele>18.217829</ele>
        <time>2024-07-13T08:32:12.000Z</time>
      </trkpt>
      <trkpt lat="39.564815" lon="-76.061691">
        <ele>17.922823</ele>
        <time>2024-07-13T08:32:17.000Z</time>
      </trkpt>
      <trkpt lat="39.564502" lon="-76.062037">
        <ele>17.644526</ele>
        <time>2024-07-13T08:32:22.000Z</time>
      </trkpt>
      <trkpt lat="39.564071" lon="-76.062783">
        <ele>17.143686</ele>
        <time>2024-07-13T08:32:30.000Z</time>
      </trkpt>
      <trkpt lat="39.562999" lon="-76.065044">
        <ele>15.944959</ele>
        <time>2024-07-13T08:32:53.000Z</time>
      </trkpt>
      <trkpt lat="39.562376" lon="-76.064735">
        <ele>15.849257</ele>
        <time>2024-07-13T08:33:00.000Z</time>
      </trkpt>
      <trkpt lat="39.562208" lon="-76.064657">
        <ele>15.822768</ele>
        <time>2024-07-13T08:33:02.000Z</time>
      </trkpt>
      <trkpt lat="39.561042" lon="-76.064098">
        <ele>15.215656</ele>
        <time>2024-07-13T08:33:16.000Z</time>
      </trkpt>
      <trkpt lat="39.560243" lon="-76.063711">
        <ele>14.413809</ele>
        <time>2024-07-13T08:33:25.000Z</time>
      </trkpt>
      <trkpt lat="39.558752" lon="-76.062994">
        <ele>11.127182</ele>
        <time>2024-07-13T08:33:43.000Z</time>
      </trkpt>
      <trkpt lat="39.558244" lon="-76.062588">
        <ele>9.682291</ele>
        <time>2024-07-13T08:33:50.000Z</time>
      </trkpt>
      <trkpt lat="39.557925" lon="-76.063013">
        <ele>9.151682</ele>
        <time>2024-07-13T08:33:55.000Z</time>
      </trkpt>
      <trkpt lat="39.55743" lon="-76.063623">
        <ele>8.396365</ele>
        <time>2024-07-13T08:34:03.000Z</time>
      </trkpt>
      <trkpt lat="39.557123" lon="-76.063826">
        <ele>8.020455</ele>
        <time>2024-07-13T08:34:07.000Z</time>
      </trkpt>
      <trkpt lat="39.556986" lon="-76.063899">
        <ele>7.871311</ele>
        <time>2024-07-13T08:34:09.000Z</time>
      </trkpt>
      <trkpt lat="39.556702" lon="-76.063933">
        <ele>7.775232</ele>
        <time>2024-07-13T08:34:12.000Z</time>
      </trkpt>
      <trkpt lat="39.556157" lon="-76.063951">
        <ele>8.286701</ele>
        <time>2024-07-13T08:34:18.000Z</time>
      </trkpt>
      <trkpt lat="39.555959" lon="-76.064047">
        <ele>8.497438</ele>
        <time>2024-07-13T08:34:20.000Z</time>
      </trkpt>
      <trkpt lat="39.55569" lon="-76.063471">
        <ele>9.002783</ele>
        <time>2024-07-13T08:34:26.000Z</time>
      </trkpt>
      <trkpt lat="39.55466" lon="-76.060755">
        <ele>10.151926</ele>
        <time>2024-07-13T08:34:52.000Z</time>
      </trkpt>
      <trkpt lat="39.554945" lon="-76.059526">
        <ele>9.265045</ele>
        <time>2024-07-13T08:35:03.000Z</time>
      </trkpt>
      <trkpt lat="39.555023" lon="-76.058876">
        <ele>8.823421</ele>
        <time>2024-07-13T08:35:09.000Z</time>
      </trkpt>
      <trkpt lat="39.554981" lon="-76.058589">
        <ele>8.605348</ele>
        <time>2024-07-13T08:35:12.000Z</time>
      </trkpt>
      <trkpt lat="39.55462" lon="-76.057437">
        <ele>7.594695</ele>
        <time>2024-07-13T08:35:23.000Z</time>
      </trkpt>
      <trkpt lat="39.554508" lon="-76.056895">
        <ele>7.128173</ele>
        <time>2024-07-13T08:35:28.000Z</time>
      </trkpt>
      <trkpt lat="39.554294" lon="-76.056445">
        <ele>6.71305</ele>
        <time>2024-07-13T08:35:33.000Z</time>
      </trkpt>
      <trkpt lat="39.553517" lon="-76.055848">
        <ele>6.01814</ele>
        <time>2024-07-13T08:35:43.000Z</time>
      </trkpt>
      <trkpt lat="39.55335" lon="-76.055639">
        <ele>5.847358</ele>
        <time>2024-07-13T08:35:46.000Z</time>
      </trkpt>
      <trkpt lat="39.55308" lon="-76.054979">
        <ele>5.40085</ele>
        <time>2024-07-13T08:35:52.000Z</time>
      </trkpt>
      <trkpt lat="39.553109" lon="-76.054548">
        <ele>5.120849</ele>
        <time>2024-07-13T08:35:56.000Z</time>
      </trkpt>
      <trkpt lat="39.552845" lon="-76.054186">
        <ele>4.793145</ele>
        <time>2024-07-13T08:36:00.000Z</time>
      </trkpt>
      <trkpt lat="39.552452" lon="-76.053739">
        <ele>4.353803</ele>
        <time>2024-07-13T08:36:06.000Z</time>
      </trkpt>
      <trkpt lat="39.552115" lon="-76.053536">
        <ele>4.029</ele>
        <time>2024-07-13T08:36:10.000Z</time>
      </trkpt>
      <trkpt lat="39.55192" lon="-76.053177">
        <ele>3.830274</ele>
        <time>2024-07-13T08:36:14.000Z</time>
      </trkpt>
      <trkpt lat="39.551792" lon="-76.053097">
        <ele>3.826272</ele>
        <time>2024-07-13T08:36:16.000Z</time>
      </trkpt>
      <trkpt lat="39.551293" lon="-76.053125">
        <ele>3.810611</ele>
        <time>2024-07-13T08:36:22.000Z</time>
      </trkpt>
      <trkpt lat="39.551219" lon="-76.053158">
        <ele>3.808299</ele>
        <time>2024-07-13T08:36:23.000Z</time>
      </trkpt>
      <trkpt lat="39.55113" lon="-76.053407">
        <ele>3.801867</ele>
        <time>2024-07-13T08:36:25.000Z</time>
      </trkpt>
      <trkpt lat="39.551042" lon="-76.053619">
        <ele>3.796123</ele>
        <time>2024-07-13T08:36:27.000Z</time>
      </trkpt>
      <trkpt lat="39.550914" lon="-76.053796">
        <ele>3.790381</ele>
        <time>2024-07-13T08:36:29.000Z</time>
      </trkpt>
      <trkpt lat="39.550615" lon="-76.053848">
        <ele>3.781303</ele>
        <time>2024-07-13T08:36:32.000Z</time>
      </trkpt>
      <trkpt lat="39.55035" lon="-76.05369">
        <ele>3.787559</ele>
        <time>2024-07-13T08:36:35.000Z</time>
      </trkpt>
      <trkpt lat="39.550218" lon="-76.053267">
        <ele>3.802855</ele>
        <time>2024-07-13T08:36:39.000Z</time>
      </trkpt>
      <trkpt lat="39.550209" lon="-76.052682">
        <ele>3.821253</ele>
        <time>2024-07-13T08:36:44.000Z</time>
      </trkpt>
      <trkpt lat="39.550136" lon="-76.052511">
        <ele>3.827788</ele>
        <time>2024-07-13T08:36:46.000Z</time>
      </trkpt>
      <trkpt lat="39.549352" lon="-76.052092">
        <ele>3.85669556622</ele>
        <time>2024-07-13T08:36:55.000Z</time>
      </trkpt>
      <trkpt lat="39.549095" lon="-76.051735">
        <ele>3.86953402462</ele>
        <time>2024-07-13T08:36:59.000Z</time>
      </trkpt>
      <trkpt lat="39.548924" lon="-76.051092">
        <ele>3.88741340204</ele>
        <time>2024-07-13T08:37:05.000Z</time>
      </trkpt>
      <trkpt lat="39.548809" lon="-76.050981">
        <ele>3.89230047777</ele>
        <time>2024-07-13T08:37:07.000Z</time>
      </trkpt>
      <trkpt lat="39.548415" lon="-76.050851">
        <ele>3.90616011649</ele>
        <time>2024-07-13T08:37:12.000Z</time>
      </trkpt>
    </trkseg>
  </trk>
</gpx>

<!--
Performance optimized by W3 Total Cache. Learn more: https://www.boldgrid.com/w3-total-cache/?utm_source=w3tc&utm_medium=footer_comment&utm_campaign=free_plugin

Page Caching using Disk: Enhanced{w3tc_pagecache_reject_reason} 

Served from: www.aquabike.world @ 2026-05-10 17:34:38 by W3 Total Cache
-->